sensor_id;sensor_type;location;lat;lon;timestamp;P1;durP1;ratioP1;P2;durP2;ratioP2
28968;SDS011;16076;51.194;6.642;2022-11-06T00:01:07;6.13;;;3.17;;
28968;SDS011;16076;51.194;6.642;2022-11-06T00:03:34;12.32;;;3.65;;
28968;SDS011;16076;51.194;6.642;2022-11-06T00:06:04;7.97;;;3.65;;
28968;SDS011;16076;51.194;6.642;2022-11-06T00:08:53;7.15;;;3.10;;
28968;SDS011;16076;51.194;6.642;2022-11-06T00:11:21;10.80;;;3.33;;
28968;SDS011;16076;51.194;6.642;2022-11-06T00:13:47;6.72;;;3.63;;
28968;SDS011;16076;51.194;6.642;2022-11-06T00:16:13;8.52;;;5.05;;
28968;SDS011;16076;51.194;6.642;2022-11-06T00:18:39;10.55;;;4.38;;
28968;SDS011;16076;51.194;6.642;2022-11-06T00:21:06;7.80;;;3.67;;
28968;SDS011;16076;51.194;6.642;2022-11-06T00:23:37;7.85;;;3.92;;
28968;SDS011;16076;51.194;6.642;2022-11-06T00:26:05;10.20;;;4.47;;
28968;SDS011;16076;51.194;6.642;2022-11-06T00:28:31;7.97;;;3.95;;
28968;SDS011;16076;51.194;6.642;2022-11-06T00:31:09;11.73;;;3.80;;
28968;SDS011;16076;51.194;6.642;2022-11-06T00:33:36;6.65;;;3.67;;
28968;SDS011;16076;51.194;6.642;2022-11-06T00:36:02;6.10;;;4.22;;
28968;SDS011;16076;51.194;6.642;2022-11-06T00:38:30;6.68;;;3.50;;
28968;SDS011;16076;51.194;6.642;2022-11-06T00:40:55;9.88;;;3.88;;
28968;SDS011;16076;51.194;6.642;2022-11-06T00:43:21;11.45;;;3.58;;
28968;SDS011;16076;51.194;6.642;2022-11-06T00:45:47;5.90;;;3.85;;
28968;SDS011;16076;51.194;6.642;2022-11-06T00:48:13;9.65;;;4.13;;
28968;SDS011;16076;51.194;6.642;2022-11-06T00:50:38;7.90;;;3.60;;
28968;SDS011;16076;51.194;6.642;2022-11-06T00:53:04;8.85;;;4.03;;
28968;SDS011;16076;51.194;6.642;2022-11-06T00:55:30;7.70;;;4.03;;
28968;SDS011;16076;51.194;6.642;2022-11-06T00:57:56;14.27;;;6.28;;
28968;SDS011;16076;51.194;6.642;2022-11-06T01:00:22;6.97;;;4.68;;
28968;SDS011;16076;51.194;6.642;2022-11-06T01:02:48;7.68;;;4.15;;
28968;SDS011;16076;51.194;6.642;2022-11-06T01:05:13;12.93;;;4.50;;
28968;SDS011;16076;51.194;6.642;2022-11-06T01:07:40;7.35;;;3.83;;
28968;SDS011;16076;51.194;6.642;2022-11-06T01:10:06;9.27;;;4.45;;
28968;SDS011;16076;51.194;6.642;2022-11-06T01:12:33;12.48;;;4.07;;
28968;SDS011;16076;51.194;6.642;2022-11-06T01:14:59;14.88;;;4.78;;
28968;SDS011;16076;51.194;6.642;2022-11-06T01:17:25;7.97;;;4.05;;
28968;SDS011;16076;51.194;6.642;2022-11-06T01:19:52;12.57;;;4.15;;
28968;SDS011;16076;51.194;6.642;2022-11-06T01:22:18;9.35;;;3.83;;
28968;SDS011;16076;51.194;6.642;2022-11-06T01:24:44;8.40;;;4.00;;
28968;SDS011;16076;51.194;6.642;2022-11-06T01:27:09;7.25;;;4.13;;
28968;SDS011;16076;51.194;6.642;2022-11-06T01:29:35;10.65;;;4.05;;
28968;SDS011;16076;51.194;6.642;2022-11-06T01:32:01;6.18;;;4.15;;
28968;SDS011;16076;51.194;6.642;2022-11-06T01:34:28;7.88;;;3.35;;
28968;SDS011;16076;51.194;6.642;2022-11-06T01:36:53;10.60;;;3.70;;
28968;SDS011;16076;51.194;6.642;2022-11-06T01:39:19;13.00;;;3.60;;
28968;SDS011;16076;51.194;6.642;2022-11-06T01:41:49;6.47;;;3.60;;
28968;SDS011;16076;51.194;6.642;2022-11-06T01:47:24;8.18;;;3.53;;
28968;SDS011;16076;51.194;6.642;2022-11-06T01:49:55;12.00;;;3.53;;
28968;SDS011;16076;51.194;6.642;2022-11-06T01:52:23;9.77;;;3.80;;
28968;SDS011;16076;51.194;6.642;2022-11-06T01:54:52;13.82;;;3.67;;
28968;SDS011;16076;51.194;6.642;2022-11-06T01:57:24;15.45;;;3.58;;
28968;SDS011;16076;51.194;6.642;2022-11-06T01:59:50;9.13;;;3.58;;
28968;SDS011;16076;51.194;6.642;2022-11-06T02:02:17;8.18;;;3.80;;
28968;SDS011;16076;51.194;6.642;2022-11-06T02:04:44;14.27;;;3.45;;
28968;SDS011;16076;51.194;6.642;2022-11-06T02:07:14;11.85;;;4.43;;
28968;SDS011;16076;51.194;6.642;2022-11-06T02:09:40;12.98;;;4.68;;
28968;SDS011;16076;51.194;6.642;2022-11-06T02:29:49;7.00;;;3.50;;
28968;SDS011;16076;51.194;6.642;2022-11-06T02:34:57;7.35;;;3.33;;
28968;SDS011;16076;51.194;6.642;2022-11-06T02:37:28;10.25;;;3.50;;
28968;SDS011;16076;51.194;6.642;2022-11-06T02:39:59;8.07;;;3.30;;
28968;SDS011;16076;51.194;6.642;2022-11-06T02:42:28;7.85;;;2.75;;
28968;SDS011;16076;51.194;6.642;2022-11-06T02:44:56;9.93;;;3.63;;
28968;SDS011;16076;51.194;6.642;2022-11-06T02:47:24;10.40;;;3.95;;
28968;SDS011;16076;51.194;6.642;2022-11-06T02:50:00;12.57;;;3.60;;
28968;SDS011;16076;51.194;6.642;2022-11-06T02:52:35;5.78;;;3.05;;
28968;SDS011;16076;51.194;6.642;2022-11-06T02:55:20;12.50;;;4.43;;
28968;SDS011;16076;51.194;6.642;2022-11-06T02:57:52;10.60;;;3.08;;
28968;SDS011;16076;51.194;6.642;2022-11-06T03:00:44;7.47;;;2.90;;
28968;SDS011;16076;51.194;6.642;2022-11-06T03:03:20;4.38;;;2.58;;
28968;SDS011;16076;51.194;6.642;2022-11-06T03:05:52;8.05;;;3.00;;
28968;SDS011;16076;51.194;6.642;2022-11-06T03:08:38;9.05;;;3.30;;
28968;SDS011;16076;51.194;6.642;2022-11-06T03:11:13;6.50;;;2.90;;
28968;SDS011;16076;51.194;6.642;2022-11-06T03:21:43;6.25;;;2.53;;
28968;SDS011;16076;51.194;6.642;2022-11-06T03:24:17;12.15;;;2.80;;
28968;SDS011;16076;51.194;6.642;2022-11-06T03:26:51;9.27;;;2.90;;
28968;SDS011;16076;51.194;6.642;2022-11-06T03:29:20;6.85;;;2.10;;
28968;SDS011;16076;51.194;6.642;2022-11-06T03:31:56;14.02;;;3.08;;
28968;SDS011;16076;51.194;6.642;2022-11-06T03:34:57;7.03;;;2.47;;
28968;SDS011;16076;51.194;6.642;2022-11-06T03:37:34;4.78;;;2.08;;
28968;SDS011;16076;51.194;6.642;2022-11-06T03:40:06;9.93;;;2.40;;
28968;SDS011;16076;51.194;6.642;2022-11-06T03:45:05;7.43;;;2.25;;
28968;SDS011;16076;51.194;6.642;2022-11-06T03:47:39;10.85;;;2.35;;
28968;SDS011;16076;51.194;6.642;2022-11-06T03:50:15;4.13;;;2.25;;
28968;SDS011;16076;51.194;6.642;2022-11-06T03:52:48;5.75;;;2.83;;
28968;SDS011;16076;51.194;6.642;2022-11-06T03:55:19;7.05;;;2.10;;
28968;SDS011;16076;51.194;6.642;2022-11-06T04:00:19;9.00;;;3.38;;
28968;SDS011;16076;51.194;6.642;2022-11-06T04:02:47;6.82;;;2.10;;
28968;SDS011;16076;51.194;6.642;2022-11-06T04:07:47;12.05;;;3.55;;
28968;SDS011;16076;51.194;6.642;2022-11-06T04:10:34;3.00;;;2.15;;
28968;SDS011;16076;51.194;6.642;2022-11-06T04:13:25;7.25;;;2.50;;
28968;SDS011;16076;51.194;6.642;2022-11-06T04:16:16;7.13;;;2.38;;
28968;SDS011;16076;51.194;6.642;2022-11-06T04:18:42;7.32;;;2.72;;
28968;SDS011;16076;51.194;6.642;2022-11-06T04:23:49;8.93;;;2.67;;
28968;SDS011;16076;51.194;6.642;2022-11-06T04:30:05;7.15;;;3.35;;
28968;SDS011;16076;51.194;6.642;2022-11-06T04:32:33;9.27;;;2.72;;
28968;SDS011;16076;51.194;6.642;2022-11-06T04:38:03;7.45;;;2.83;;
28968;SDS011;16076;51.194;6.642;2022-11-06T04:40:53;9.13;;;3.28;;
28968;SDS011;16076;51.194;6.642;2022-11-06T04:43:45;10.27;;;2.83;;
28968;SDS011;16076;51.194;6.642;2022-11-06T04:46:20;8.55;;;3.13;;
28968;SDS011;16076;51.194;6.642;2022-11-06T04:48:52;6.22;;;2.80;;
28968;SDS011;16076;51.194;6.642;2022-11-06T04:51:21;8.00;;;2.55;;
28968;SDS011;16076;51.194;6.642;2022-11-06T04:53:49;11.77;;;5.22;;
28968;SDS011;16076;51.194;6.642;2022-11-06T04:56:21;8.63;;;2.95;;
28968;SDS011;16076;51.194;6.642;2022-11-06T04:58:50;9.70;;;3.40;;
28968;SDS011;16076;51.194;6.642;2022-11-06T05:01:16;14.98;;;3.30;;
28968;SDS011;16076;51.194;6.642;2022-11-06T05:03:44;8.05;;;3.20;;
28968;SDS011;16076;51.194;6.642;2022-11-06T05:06:10;10.80;;;3.13;;
28968;SDS011;16076;51.194;6.642;2022-11-06T05:08:35;9.68;;;3.05;;
28968;SDS011;16076;51.194;6.642;2022-11-06T05:11:04;6.10;;;2.25;;
28968;SDS011;16076;51.194;6.642;2022-11-06T05:13:30;7.32;;;3.22;;
28968;SDS011;16076;51.194;6.642;2022-11-06T05:15:56;14.82;;;3.15;;
28968;SDS011;16076;51.194;6.642;2022-11-06T05:18:23;7.82;;;2.85;;
28968;SDS011;16076;51.194;6.642;2022-11-06T05:20:49;12.32;;;3.47;;
28968;SDS011;16076;51.194;6.642;2022-11-06T05:23:35;4.40;;;2.25;;
28968;SDS011;16076;51.194;6.642;2022-11-06T05:26:02;11.60;;;2.97;;
28968;SDS011;16076;51.194;6.642;2022-11-06T05:28:28;6.15;;;2.63;;
28968;SDS011;16076;51.194;6.642;2022-11-06T05:30:54;7.22;;;2.60;;
28968;SDS011;16076;51.194;6.642;2022-11-06T05:33:20;12.63;;;3.00;;
28968;SDS011;16076;51.194;6.642;2022-11-06T05:35:46;5.32;;;2.80;;
28968;SDS011;16076;51.194;6.642;2022-11-06T05:38:11;9.23;;;3.05;;
28968;SDS011;16076;51.194;6.642;2022-11-06T05:40:37;9.15;;;2.80;;
28968;SDS011;16076;51.194;6.642;2022-11-06T05:43:03;6.60;;;2.33;;
28968;SDS011;16076;51.194;6.642;2022-11-06T05:45:28;6.18;;;4.13;;
28968;SDS011;16076;51.194;6.642;2022-11-06T05:47:54;6.75;;;2.33;;
28968;SDS011;16076;51.194;6.642;2022-11-06T05:50:22;6.30;;;2.42;;
28968;SDS011;16076;51.194;6.642;2022-11-06T05:52:49;5.55;;;2.50;;
28968;SDS011;16076;51.194;6.642;2022-11-06T05:55:14;11.00;;;2.90;;
28968;SDS011;16076;51.194;6.642;2022-11-06T05:57:40;9.18;;;2.40;;
28968;SDS011;16076;51.194;6.642;2022-11-06T06:00:06;7.72;;;2.70;;
28968;SDS011;16076;51.194;6.642;2022-11-06T06:02:34;9.48;;;2.42;;
28968;SDS011;16076;51.194;6.642;2022-11-06T06:05:00;14.07;;;3.42;;
28968;SDS011;16076;51.194;6.642;2022-11-06T06:07:27;8.27;;;2.53;;
28968;SDS011;16076;51.194;6.642;2022-11-06T06:09:53;8.45;;;2.75;;
28968;SDS011;16076;51.194;6.642;2022-11-06T06:12:19;7.03;;;2.70;;
28968;SDS011;16076;51.194;6.642;2022-11-06T06:14:50;7.03;;;2.70;;
28968;SDS011;16076;51.194;6.642;2022-11-06T06:17:16;11.20;;;2.65;;
28968;SDS011;16076;51.194;6.642;2022-11-06T06:19:42;7.78;;;3.42;;
28968;SDS011;16076;51.194;6.642;2022-11-06T06:22:08;9.65;;;2.38;;
28968;SDS011;16076;51.194;6.642;2022-11-06T06:24:33;8.43;;;2.60;;
28968;SDS011;16076;51.194;6.642;2022-11-06T06:26:59;4.47;;;2.40;;
28968;SDS011;16076;51.194;6.642;2022-11-06T06:29:25;9.07;;;2.50;;
28968;SDS011;16076;51.194;6.642;2022-11-06T06:31:54;7.68;;;2.95;;
28968;SDS011;16076;51.194;6.642;2022-11-06T06:34:20;8.15;;;2.80;;
28968;SDS011;16076;51.194;6.642;2022-11-06T06:36:49;8.73;;;2.85;;
28968;SDS011;16076;51.194;6.642;2022-11-06T06:39:16;9.10;;;2.63;;
28968;SDS011;16076;51.194;6.642;2022-11-06T06:41:43;11.38;;;3.80;;
28968;SDS011;16076;51.194;6.642;2022-11-06T06:44:09;8.48;;;3.03;;
28968;SDS011;16076;51.194;6.642;2022-11-06T06:46:35;11.23;;;2.50;;
28968;SDS011;16076;51.194;6.642;2022-11-06T06:49:03;8.55;;;2.88;;
28968;SDS011;16076;51.194;6.642;2022-11-06T06:51:29;7.97;;;2.83;;
28968;SDS011;16076;51.194;6.642;2022-11-06T06:53:57;7.15;;;2.65;;
28968;SDS011;16076;51.194;6.642;2022-11-06T06:56:23;10.77;;;2.70;;
28968;SDS011;16076;51.194;6.642;2022-11-06T06:58:54;6.40;;;3.15;;
28968;SDS011;16076;51.194;6.642;2022-11-06T07:01:20;10.07;;;2.47;;
28968;SDS011;16076;51.194;6.642;2022-11-06T07:03:46;8.98;;;2.67;;
28968;SDS011;16076;51.194;6.642;2022-11-06T07:06:11;12.63;;;2.60;;
28968;SDS011;16076;51.194;6.642;2022-11-06T07:08:37;9.35;;;3.38;;
28968;SDS011;16076;51.194;6.642;2022-11-06T07:11:07;6.72;;;2.75;;
28968;SDS011;16076;51.194;6.642;2022-11-06T07:13:33;8.88;;;3.35;;
28968;SDS011;16076;51.194;6.642;2022-11-06T07:16:09;6.80;;;2.80;;
28968;SDS011;16076;51.194;6.642;2022-11-06T07:18:37;10.82;;;2.78;;
28968;SDS011;16076;51.194;6.642;2022-11-06T07:21:04;11.35;;;3.38;;
28968;SDS011;16076;51.194;6.642;2022-11-06T07:23:31;5.88;;;2.83;;
28968;SDS011;16076;51.194;6.642;2022-11-06T07:25:58;13.48;;;4.00;;
28968;SDS011;16076;51.194;6.642;2022-11-06T07:28:24;11.50;;;3.38;;
28968;SDS011;16076;51.194;6.642;2022-11-06T07:30:56;7.80;;;2.85;;
28968;SDS011;16076;51.194;6.642;2022-11-06T07:33:23;5.40;;;2.95;;
28968;SDS011;16076;51.194;6.642;2022-11-06T07:35:49;4.43;;;3.05;;
28968;SDS011;16076;51.194;6.642;2022-11-06T07:38:14;5.75;;;2.83;;
28968;SDS011;16076;51.194;6.642;2022-11-06T07:40:40;5.53;;;3.03;;
28968;SDS011;16076;51.194;6.642;2022-11-06T07:43:07;7.18;;;2.72;;
28968;SDS011;16076;51.194;6.642;2022-11-06T07:45:34;9.68;;;3.42;;
28968;SDS011;16076;51.194;6.642;2022-11-06T07:48:00;11.32;;;3.13;;
28968;SDS011;16076;51.194;6.642;2022-11-06T07:50:26;9.13;;;2.80;;
28968;SDS011;16076;51.194;6.642;2022-11-06T07:52:52;11.70;;;3.22;;
28968;SDS011;16076;51.194;6.642;2022-11-06T07:55:18;10.82;;;2.47;;
28968;SDS011;16076;51.194;6.642;2022-11-06T07:57:44;8.02;;;2.75;;
28968;SDS011;16076;51.194;6.642;2022-11-06T08:00:10;9.45;;;2.90;;
28968;SDS011;16076;51.194;6.642;2022-11-06T08:02:39;4.43;;;2.65;;
28968;SDS011;16076;51.194;6.642;2022-11-06T08:05:05;10.90;;;3.67;;
28968;SDS011;16076;51.194;6.642;2022-11-06T08:07:32;7.43;;;2.90;;
28968;SDS011;16076;51.194;6.642;2022-11-06T08:09:58;7.78;;;3.10;;
28968;SDS011;16076;51.194;6.642;2022-11-06T08:12:24;6.28;;;3.08;;
28968;SDS011;16076;51.194;6.642;2022-11-06T08:14:50;8.68;;;2.60;;
28968;SDS011;16076;51.194;6.642;2022-11-06T08:17:15;8.80;;;2.83;;
28968;SDS011;16076;51.194;6.642;2022-11-06T08:19:41;12.63;;;3.30;;
28968;SDS011;16076;51.194;6.642;2022-11-06T08:22:07;9.93;;;3.08;;
28968;SDS011;16076;51.194;6.642;2022-11-06T08:24:33;7.78;;;3.03;;
28968;SDS011;16076;51.194;6.642;2022-11-06T08:26:59;11.30;;;2.85;;
28968;SDS011;16076;51.194;6.642;2022-11-06T08:29:26;7.78;;;3.08;;
28968;SDS011;16076;51.194;6.642;2022-11-06T08:31:52;13.68;;;3.30;;
28968;SDS011;16076;51.194;6.642;2022-11-06T08:34:18;5.93;;;2.90;;
28968;SDS011;16076;51.194;6.642;2022-11-06T08:36:44;9.48;;;2.80;;
28968;SDS011;16076;51.194;6.642;2022-11-06T08:39:13;8.68;;;2.30;;
28968;SDS011;16076;51.194;6.642;2022-11-06T08:41:39;8.80;;;2.47;;
28968;SDS011;16076;51.194;6.642;2022-11-06T08:44:09;7.70;;;2.65;;
28968;SDS011;16076;51.194;6.642;2022-11-06T08:46:37;7.13;;;2.58;;
28968;SDS011;16076;51.194;6.642;2022-11-06T08:49:03;10.23;;;2.30;;
28968;SDS011;16076;51.194;6.642;2022-11-06T08:51:29;6.15;;;2.50;;
28968;SDS011;16076;51.194;6.642;2022-11-06T08:53:54;9.95;;;2.65;;
28968;SDS011;16076;51.194;6.642;2022-11-06T08:56:21;5.47;;;2.40;;
28968;SDS011;16076;51.194;6.642;2022-11-06T08:58:47;10.30;;;3.10;;
28968;SDS011;16076;51.194;6.642;2022-11-06T09:01:13;10.07;;;2.53;;
28968;SDS011;16076;51.194;6.642;2022-11-06T09:03:38;4.95;;;2.25;;
28968;SDS011;16076;51.194;6.642;2022-11-06T09:06:06;6.07;;;2.25;;
28968;SDS011;16076;51.194;6.642;2022-11-06T09:08:32;9.15;;;2.92;;
28968;SDS011;16076;51.194;6.642;2022-11-06T09:10:58;3.97;;;2.00;;
28968;SDS011;16076;51.194;6.642;2022-11-06T09:13:24;6.82;;;2.35;;
28968;SDS011;16076;51.194;6.642;2022-11-06T09:15:52;6.50;;;2.40;;
28968;SDS011;16076;51.194;6.642;2022-11-06T09:18:18;13.38;;;4.32;;
28968;SDS011;16076;51.194;6.642;2022-11-06T09:20:44;10.93;;;2.58;;
28968;SDS011;16076;51.194;6.642;2022-11-06T09:23:09;10.60;;;2.38;;
28968;SDS011;16076;51.194;6.642;2022-11-06T09:25:35;9.00;;;2.60;;
28968;SDS011;16076;51.194;6.642;2022-11-06T09:28:01;6.25;;;2.72;;
28968;SDS011;16076;51.194;6.642;2022-11-06T09:30:28;8.40;;;2.30;;
28968;SDS011;16076;51.194;6.642;2022-11-06T09:32:57;5.40;;;2.20;;
28968;SDS011;16076;51.194;6.642;2022-11-06T09:35:25;7.10;;;2.42;;
28968;SDS011;16076;51.194;6.642;2022-11-06T09:37:52;7.18;;;2.70;;
28968;SDS011;16076;51.194;6.642;2022-11-06T09:45:42;10.07;;;2.90;;
28968;SDS011;16076;51.194;6.642;2022-11-06T09:50:52;9.90;;;2.65;;
28968;SDS011;16076;51.194;6.642;2022-11-06T09:56:15;8.80;;;2.80;;
28968;SDS011;16076;51.194;6.642;2022-11-06T09:58:45;11.45;;;3.70;;
28968;SDS011;16076;51.194;6.642;2022-11-06T10:03:46;7.93;;;3.00;;
28968;SDS011;16076;51.194;6.642;2022-11-06T10:06:19;8.30;;;2.60;;
28968;SDS011;16076;51.194;6.642;2022-11-06T10:08:46;7.22;;;3.25;;
28968;SDS011;16076;51.194;6.642;2022-11-06T10:27:13;6.43;;;3.08;;
28968;SDS011;16076;51.194;6.642;2022-11-06T10:34:56;9.20;;;2.28;;
28968;SDS011;16076;51.194;6.642;2022-11-06T10:38:05;9.85;;;3.13;;
28968;SDS011;16076;51.194;6.642;2022-11-06T10:40:31;7.05;;;2.65;;
28968;SDS011;16076;51.194;6.642;2022-11-06T10:43:18;11.05;;;2.92;;
28968;SDS011;16076;51.194;6.642;2022-11-06T10:48:36;8.30;;;2.60;;
28968;SDS011;16076;51.194;6.642;2022-11-06T10:57:22;5.45;;;1.98;;
28968;SDS011;16076;51.194;6.642;2022-11-06T10:59:51;5.63;;;2.10;;
28968;SDS011;16076;51.194;6.642;2022-11-06T11:02:22;11.90;;;2.22;;
28968;SDS011;16076;51.194;6.642;2022-11-06T11:04:49;10.30;;;2.65;;
28968;SDS011;16076;51.194;6.642;2022-11-06T11:07:17;5.82;;;2.42;;
28968;SDS011;16076;51.194;6.642;2022-11-06T11:09:42;9.38;;;2.78;;
28968;SDS011;16076;51.194;6.642;2022-11-06T11:12:18;6.15;;;2.25;;
28968;SDS011;16076;51.194;6.642;2022-11-06T11:15:02;8.38;;;2.38;;
28968;SDS011;16076;51.194;6.642;2022-11-06T11:18:07;4.50;;;2.45;;
28968;SDS011;16076;51.194;6.642;2022-11-06T11:20:47;4.10;;;1.92;;
28968;SDS011;16076;51.194;6.642;2022-11-06T11:23:20;7.78;;;2.45;;
28968;SDS011;16076;51.194;6.642;2022-11-06T11:25:52;3.63;;;1.92;;
28968;SDS011;16076;51.194;6.642;2022-11-06T11:31:07;3.97;;;2.15;;
28968;SDS011;16076;51.194;6.642;2022-11-06T11:33:41;7.07;;;2.60;;
28968;SDS011;16076;51.194;6.642;2022-11-06T11:36:19;10.52;;;3.00;;
28968;SDS011;16076;51.194;6.642;2022-11-06T11:38:45;8.27;;;3.38;;
28968;SDS011;16076;51.194;6.642;2022-11-06T11:46:20;6.72;;;2.55;;
28968;SDS011;16076;51.194;6.642;2022-11-06T11:48:49;8.55;;;2.72;;
28968;SDS011;16076;51.194;6.642;2022-11-06T11:53:53;6.10;;;2.60;;
28968;SDS011;16076;51.194;6.642;2022-11-06T11:56:22;5.30;;;2.35;;
28968;SDS011;16076;51.194;6.642;2022-11-06T11:58:54;11.95;;;3.10;;
28968;SDS011;16076;51.194;6.642;2022-11-06T12:01:35;8.88;;;2.63;;
28968;SDS011;16076;51.194;6.642;2022-11-06T12:04:21;8.63;;;2.55;;
28968;SDS011;16076;51.194;6.642;2022-11-06T12:06:59;5.97;;;2.75;;
28968;SDS011;16076;51.194;6.642;2022-11-06T12:09:29;5.10;;;2.67;;
28968;SDS011;16076;51.194;6.642;2022-11-06T12:11:58;8.80;;;2.80;;
28968;SDS011;16076;51.194;6.642;2022-11-06T12:17:22;5.53;;;3.08;;
28968;SDS011;16076;51.194;6.642;2022-11-06T12:19:51;7.47;;;2.67;;
28968;SDS011;16076;51.194;6.642;2022-11-06T12:22:29;8.25;;;2.80;;
28968;SDS011;16076;51.194;6.642;2022-11-06T12:28:04;8.18;;;3.00;;
28968;SDS011;16076;51.194;6.642;2022-11-06T12:30:39;9.05;;;2.63;;
28968;SDS011;16076;51.194;6.642;2022-11-06T12:33:41;6.88;;;3.13;;
28968;SDS011;16076;51.194;6.642;2022-11-06T12:36:03;9.35;;;3.00;;
28968;SDS011;16076;51.194;6.642;2022-11-06T12:38:48;6.40;;;3.07;;
28968;SDS011;16076;51.194;6.642;2022-11-06T12:41:23;6.93;;;2.67;;
28968;SDS011;16076;51.194;6.642;2022-11-06T12:43:57;4.22;;;2.65;;
28968;SDS011;16076;51.194;6.642;2022-11-06T13:05:01;8.95;;;3.17;;
28968;SDS011;16076;51.194;6.642;2022-11-06T13:17:54;5.20;;;2.60;;
28968;SDS011;16076;51.194;6.642;2022-11-06T13:20:56;9.63;;;2.67;;
28968;SDS011;16076;51.194;6.642;2022-11-06T13:23:29;7.90;;;2.67;;
28968;SDS011;16076;51.194;6.642;2022-11-06T13:26:41;10.57;;;2.90;;
28968;SDS011;16076;51.194;6.642;2022-11-06T13:28:54;9.50;;;3.05;;
28968;SDS011;16076;51.194;6.642;2022-11-06T13:31:35;4.35;;;2.70;;
28968;SDS011;16076;51.194;6.642;2022-11-06T13:34:05;8.80;;;2.30;;
28968;SDS011;16076;51.194;6.642;2022-11-06T13:36:36;7.63;;;2.50;;
28968;SDS011;16076;51.194;6.642;2022-11-06T13:39:06;3.72;;;2.45;;
28968;SDS011;16076;51.194;6.642;2022-11-06T13:41:43;6.63;;;3.30;;
28968;SDS011;16076;51.194;6.642;2022-11-06T13:44:10;8.43;;;2.70;;
28968;SDS011;16076;51.194;6.642;2022-11-06T13:46:57;4.47;;;2.47;;
28968;SDS011;16076;51.194;6.642;2022-11-06T13:49:43;7.22;;;2.67;;
28968;SDS011;16076;51.194;6.642;2022-11-06T13:52:23;9.02;;;2.95;;
28968;SDS011;16076;51.194;6.642;2022-11-06T13:55:22;6.82;;;2.67;;
28968;SDS011;16076;51.194;6.642;2022-11-06T14:06:08;5.80;;;2.10;;
28968;SDS011;16076;51.194;6.642;2022-11-06T14:08:55;11.27;;;2.58;;
28968;SDS011;16076;51.194;6.642;2022-11-06T14:11:27;6.63;;;2.30;;
28968;SDS011;16076;51.194;6.642;2022-11-06T14:14:00;4.05;;;1.95;;
28968;SDS011;16076;51.194;6.642;2022-11-06T14:16:33;4.13;;;2.00;;
28968;SDS011;16076;51.194;6.642;2022-11-06T14:19:03;4.15;;;1.85;;
28968;SDS011;16076;51.194;6.642;2022-11-06T14:27:12;6.25;;;2.05;;
28968;SDS011;16076;51.194;6.642;2022-11-06T14:32:56;5.05;;;2.45;;
28968;SDS011;16076;51.194;6.642;2022-11-06T14:40:42;3.13;;;2.00;;
28968;SDS011;16076;51.194;6.642;2022-11-06T14:45:57;7.95;;;1.80;;
28968;SDS011;16076;51.194;6.642;2022-11-06T14:48:31;5.82;;;1.98;;
28968;SDS011;16076;51.194;6.642;2022-11-06T14:51:00;3.53;;;1.92;;
28968;SDS011;16076;51.194;6.642;2022-11-06T14:53:30;6.35;;;2.78;;
28968;SDS011;16076;51.194;6.642;2022-11-06T14:58:49;4.17;;;2.33;;
28968;SDS011;16076;51.194;6.642;2022-11-06T15:04:01;4.40;;;2.17;;
28968;SDS011;16076;51.194;6.642;2022-11-06T15:06:40;2.63;;;1.67;;
28968;SDS011;16076;51.194;6.642;2022-11-06T15:09:14;2.90;;;1.55;;
28968;SDS011;16076;51.194;6.642;2022-11-06T15:12:02;6.07;;;2.90;;
28968;SDS011;16076;51.194;6.642;2022-11-06T15:17:09;9.27;;;2.10;;
28968;SDS011;16076;51.194;6.642;2022-11-06T15:19:41;2.83;;;1.60;;
28968;SDS011;16076;51.194;6.642;2022-11-06T15:22:23;9.52;;;2.20;;
28968;SDS011;16076;51.194;6.642;2022-11-06T15:24:57;7.63;;;1.77;;
28968;SDS011;16076;51.194;6.642;2022-11-06T15:27:37;4.53;;;1.63;;
28968;SDS011;16076;51.194;6.642;2022-11-06T15:30:08;9.35;;;2.30;;
28968;SDS011;16076;51.194;6.642;2022-11-06T15:32:40;6.78;;;1.90;;
28968;SDS011;16076;51.194;6.642;2022-11-06T15:37:42;4.57;;;1.88;;
28968;SDS011;16076;51.194;6.642;2022-11-06T15:43:30;4.07;;;1.83;;
28968;SDS011;16076;51.194;6.642;2022-11-06T15:46:24;7.13;;;2.42;;
28968;SDS011;16076;51.194;6.642;2022-11-06T15:49:06;5.93;;;1.95;;
28968;SDS011;16076;51.194;6.642;2022-11-06T15:51:36;6.28;;;1.98;;
28968;SDS011;16076;51.194;6.642;2022-11-06T15:54:03;5.03;;;2.30;;
28968;SDS011;16076;51.194;6.642;2022-11-06T15:56:30;6.57;;;2.00;;
28968;SDS011;16076;51.194;6.642;2022-11-06T16:04:17;4.82;;;1.90;;
28968;SDS011;16076;51.194;6.642;2022-11-06T16:06:45;3.88;;;1.90;;
28968;SDS011;16076;51.194;6.642;2022-11-06T16:09:14;8.15;;;2.30;;
28968;SDS011;16076;51.194;6.642;2022-11-06T16:11:50;3.85;;;2.13;;
28968;SDS011;16076;51.194;6.642;2022-11-06T16:14:17;7.68;;;2.30;;
28968;SDS011;16076;51.194;6.642;2022-11-06T16:16:44;5.82;;;2.10;;
28968;SDS011;16076;51.194;6.642;2022-11-06T16:22:09;4.65;;;2.55;;
28968;SDS011;16076;51.194;6.642;2022-11-06T16:27:18;3.80;;;2.17;;
28968;SDS011;16076;51.194;6.642;2022-11-06T16:29:46;5.55;;;2.35;;
28968;SDS011;16076;51.194;6.642;2022-11-06T16:32:16;4.68;;;2.45;;
28968;SDS011;16076;51.194;6.642;2022-11-06T16:34:46;6.93;;;2.17;;
28968;SDS011;16076;51.194;6.642;2022-11-06T16:44:43;8.07;;;2.00;;
28968;SDS011;16076;51.194;6.642;2022-11-06T16:49:46;6.38;;;2.72;;
28968;SDS011;16076;51.194;6.642;2022-11-06T16:52:16;7.32;;;2.92;;
28968;SDS011;16076;51.194;6.642;2022-11-06T16:54:48;4.93;;;2.42;;
28968;SDS011;16076;51.194;6.642;2022-11-06T16:57:17;4.38;;;2.50;;
28968;SDS011;16076;51.194;6.642;2022-11-06T16:59:52;3.60;;;2.67;;
28968;SDS011;16076;51.194;6.642;2022-11-06T17:02:56;6.10;;;2.40;;
28968;SDS011;16076;51.194;6.642;2022-11-06T17:05:27;8.13;;;2.65;;
28968;SDS011;16076;51.194;6.642;2022-11-06T17:10:42;6.05;;;2.65;;
28968;SDS011;16076;51.194;6.642;2022-11-06T17:15:46;4.70;;;2.75;;
28968;SDS011;16076;51.194;6.642;2022-11-06T17:18:21;10.63;;;4.60;;
28968;SDS011;16076;51.194;6.642;2022-11-06T17:20:50;4.53;;;3.03;;
28968;SDS011;16076;51.194;6.642;2022-11-06T17:23:18;7.75;;;2.95;;
28968;SDS011;16076;51.194;6.642;2022-11-06T17:25:44;6.47;;;2.80;;
28968;SDS011;16076;51.194;6.642;2022-11-06T17:28:13;5.75;;;3.10;;
28968;SDS011;16076;51.194;6.642;2022-11-06T17:30:42;6.13;;;3.05;;
28968;SDS011;16076;51.194;6.642;2022-11-06T17:33:09;7.28;;;3.85;;
28968;SDS011;16076;51.194;6.642;2022-11-06T17:35:34;5.50;;;2.97;;
28968;SDS011;16076;51.194;6.642;2022-11-06T17:38:03;4.15;;;2.58;;
28968;SDS011;16076;51.194;6.642;2022-11-06T17:40:31;6.93;;;3.53;;
28968;SDS011;16076;51.194;6.642;2022-11-06T17:42:57;5.15;;;3.13;;
28968;SDS011;16076;51.194;6.642;2022-11-06T17:45:24;5.35;;;2.60;;
28968;SDS011;16076;51.194;6.642;2022-11-06T17:47:50;5.63;;;3.20;;
28968;SDS011;16076;51.194;6.642;2022-11-06T17:50:16;4.45;;;2.78;;
28968;SDS011;16076;51.194;6.642;2022-11-06T17:52:41;8.00;;;2.90;;
28968;SDS011;16076;51.194;6.642;2022-11-06T17:55:07;6.90;;;3.00;;
28968;SDS011;16076;51.194;6.642;2022-11-06T17:57:33;8.60;;;3.58;;
28968;SDS011;16076;51.194;6.642;2022-11-06T17:59:59;3.75;;;3.00;;
28968;SDS011;16076;51.194;6.642;2022-11-06T18:02:24;5.47;;;3.30;;
28968;SDS011;16076;51.194;6.642;2022-11-06T18:04:50;5.43;;;3.05;;
28968;SDS011;16076;51.194;6.642;2022-11-06T18:07:19;6.75;;;3.72;;
28968;SDS011;16076;51.194;6.642;2022-11-06T18:09:45;6.18;;;3.45;;
28968;SDS011;16076;51.194;6.642;2022-11-06T18:12:12;8.75;;;3.38;;
28968;SDS011;16076;51.194;6.642;2022-11-06T18:14:41;4.53;;;3.33;;
28968;SDS011;16076;51.194;6.642;2022-11-06T18:17:09;5.97;;;3.45;;
28968;SDS011;16076;51.194;6.642;2022-11-06T18:19:35;5.63;;;3.25;;
28968;SDS011;16076;51.194;6.642;2022-11-06T18:22:03;10.77;;;4.07;;
28968;SDS011;16076;51.194;6.642;2022-11-06T18:24:32;7.50;;;3.72;;
28968;SDS011;16076;51.194;6.642;2022-11-06T18:27:00;6.00;;;3.33;;